»·PEaware :: N500LL KLAS-KBZN

N500LL :: KLAS-KBZN

FLIGHT INFORMATION

Flight Status: Arrived
Operator: Privately registered:
United States
More flights under this callsign
Pilot: Andy P. (22680)
Aircraft: GATES LEARJET LEARJET 35/36
(LJ35)
More flights by this aircraft type
Origin: KLAS McCarran Intl
United States
Destination: KBZN Gallatin
United States
More flights between these airports :: More routes between these airports
Route: TRALR9 MLF J9 DBS
File this flight plan on PilotEdge
Remarks:
Altitude:
(Current/Filed)
41,000ft
Speed:
(Current/Filed)
465kts
Departed: 01-Nov-19 01:31 PM
Arrived: 01-Nov-19 03:23 PM
Distance/Time
Traveled:
609nm/1:51
Distance/Time
To Go:
Arrived

Flight Plot

Page will automatically refresh every two minutes.

Flight plan parsing failed; only flown route is shown


Map Options




Map Legend


Flown Route
Filed Route
Departure Airport
Arrival Airport
Navaid (VOR, NDB)
Fix

Horizontal Profiles

Position Reports

Time Latitude Longitude Heading Altitude Ground
Speed
01-Nov-19 13:13 36.100047 -115.160022 38 2183ft 0kts
01-Nov-19 13:15 36.100047 -115.160022 38 2183ft 0kts
01-Nov-19 13:15 36.100047 -115.160022 38 2183ft 0kts
01-Nov-19 13:16 36.100047 -115.160022 38 2183ft 0kts
01-Nov-19 13:18 36.100047 -115.160022 38 2183ft 0kts
01-Nov-19 13:18 36.100047 -115.160022 38 2183ft 0kts
01-Nov-19 13:19 36.100047 -115.160022 38 2183ft 0kts
01-Nov-19 13:20 36.100047 -115.160022 38 2183ft 0kts
01-Nov-19 13:21 36.100047 -115.160022 38 2183ft 0kts
01-Nov-19 13:22 36.100047 -115.160022 38 2183ft 0kts
01-Nov-19 13:23 36.100047 -115.160022 38 2183ft 0kts
01-Nov-19 13:24 36.100047 -115.160022 38 2183ft 0kts
01-Nov-19 13:25 36.100047 -115.160022 38 2183ft 0kts
01-Nov-19 13:26 36.100047 -115.160022 38 2183ft 0kts
01-Nov-19 13:27 36.100047 -115.160022 38 2183ft 0kts
01-Nov-19 13:28 36.100030 -115.159755 118 2183ft 6kts
01-Nov-19 13:29 36.099150 -115.156758 200 2183ft 17kts
01-Nov-19 13:30 36.076772 -115.169469 203 2684ft 174kts
01-Nov-19 13:31 36.024500 -115.199425 205 5616ft 232kts
01-Nov-19 13:32 35.986341 -115.266638 244 6872ft 273kts
01-Nov-19 13:33 35.923404 -115.281335 169 7790ft 258kts
01-Nov-19 13:34 35.864499 -115.239082 93 10204ft 280kts
01-Nov-19 13:35 35.864937 -115.135123 89 12768ft 314kts
01-Nov-19 13:36 35.878988 -115.029959 59 15785ft 321kts
01-Nov-19 13:37 35.925195 -114.932819 60 18639ft 334kts
01-Nov-19 13:38 35.969726 -114.829584 65 21392ft 345kts
01-Nov-19 13:39 36.011763 -114.719144 64 23280ft 378kts
01-Nov-19 13:40 36.059631 -114.594785 64 24560ft 409kts
01-Nov-19 13:41 36.109003 -114.466181 64 26258ft 417kts
01-Nov-19 13:42 36.159162 -114.335029 64 27596ft 424kts
01-Nov-19 13:43 36.210125 -114.202050 63 28680ft 430kts
01-Nov-19 13:44 36.262268 -114.068179 63 29753ft 433kts
01-Nov-19 13:45 36.314344 -113.933727 64 30978ft 433kts
01-Nov-19 13:46 36.366222 -113.799200 64 32384ft 433kts
01-Nov-19 13:47 36.418141 -113.663985 63 33636ft 434kts
01-Nov-19 13:48 36.500518 -113.564881 10 34977ft 429kts
01-Nov-19 13:49 36.619172 -113.559048 7 36304ft 428kts
01-Nov-19 13:50 36.735272 -113.527286 11 37519ft 426kts
01-Nov-19 13:51 36.850237 -113.492690 11 38606ft 425kts
01-Nov-19 13:52 36.965166 -113.457900 10 39536ft 424kts
01-Nov-19 13:53 37.080219 -113.422953 10 40349ft 425kts
01-Nov-19 13:54 37.195176 -113.387924 9 41087ft 426kts
01-Nov-19 13:55 37.311513 -113.352376 9 41353ft 437kts
01-Nov-19 13:56 37.431980 -113.314945 10 41360ft 452kts
01-Nov-19 13:57 37.554452 -113.275474 10 41370ft 455kts
01-Nov-19 13:58 37.677110 -113.235919 10 41376ft 455kts
01-Nov-19 13:59 37.799675 -113.196274 10 41384ft 455kts
01-Nov-19 14:00 37.922636 -113.156364 10 41385ft 454kts
01-Nov-19 14:01 38.044566 -113.116649 10 41396ft 452kts
01-Nov-19 14:02 38.165909 -113.076994 9 41422ft 448kts
01-Nov-19 14:03 38.286194 -113.037552 9 41426ft 446kts
01-Nov-19 14:04 38.404360 -112.988044 19 41433ft 451kts
01-Nov-19 14:05 38.520146 -112.925898 17 41434ft 450kts
01-Nov-19 14:06 38.635242 -112.863543 18 41434ft 450kts
01-Nov-19 14:07 38.750558 -112.800531 18 41434ft 449kts
01-Nov-19 14:08 38.865515 -112.737435 17 41442ft 449kts
01-Nov-19 14:09 38.980005 -112.674361 17 41451ft 448kts
01-Nov-19 14:10 39.094209 -112.611222 17 41465ft 446kts
01-Nov-19 14:11 39.208386 -112.547874 17 41467ft 445kts
01-Nov-19 14:12 39.321890 -112.484673 17 41468ft 444kts
01-Nov-19 14:13 39.435344 -112.421277 17 41468ft 443kts
01-Nov-19 14:14 39.548096 -112.358048 17 41471ft 442kts
01-Nov-19 14:15 39.660733 -112.294659 17 41474ft 440kts
01-Nov-19 14:16 39.772995 -112.231257 17 41478ft 439kts
01-Nov-19 14:17 39.885239 -112.167638 17 41485ft 439kts
01-Nov-19 14:18 39.996580 -112.104083 17 41491ft 438kts
01-Nov-19 14:19 40.108069 -112.038632 17 41495ft 438kts
01-Nov-19 14:20 40.219015 -111.973369 17 41498ft 438kts
01-Nov-19 14:21 40.332683 -111.934625 349 41506ft 414kts
01-Nov-19 14:22 40.447286 -111.950535 350 41509ft 414kts
01-Nov-19 14:23 40.562503 -111.960691 351 41509ft 415kts
01-Nov-19 14:24 40.677360 -111.969312 351 41509ft 414kts
01-Nov-19 14:25 40.792422 -111.977692 351 41509ft 412kts
01-Nov-19 14:26 40.906903 -111.985732 351 41509ft 411kts
01-Nov-19 14:27 41.020998 -111.993326 351 41509ft 409kts
01-Nov-19 14:28 41.134626 -112.000953 352 41506ft 408kts
01-Nov-19 14:29 41.247773 -112.008576 352 41506ft 406kts
01-Nov-19 14:30 41.360585 -112.016204 351 41507ft 404kts
01-Nov-19 14:31 41.472784 -112.023821 352 41506ft 403kts
01-Nov-19 14:32 41.584580 -112.031489 351 41509ft 402kts
01-Nov-19 14:33 41.695864 -112.039010 351 41509ft 400kts
01-Nov-19 14:34 41.807091 -112.046624 351 41511ft 399kts
01-Nov-19 14:35 41.918235 -112.054272 351 41520ft 399kts
01-Nov-19 14:36 42.029023 -112.061961 351 41520ft 399kts
01-Nov-19 14:37 42.140215 -112.069728 351 41511ft 399kts
01-Nov-19 14:38 42.250890 -112.077447 351 41521ft 399kts
01-Nov-19 14:39 42.362084 -112.085148 351 41520ft 399kts
01-Nov-19 14:40 42.472714 -112.092885 351 41520ft 398kts
01-Nov-19 14:41 42.583526 -112.100671 351 41520ft 398kts
01-Nov-19 14:42 42.693939 -112.108460 352 41523ft 397kts
01-Nov-19 14:43 42.804212 -112.116266 352 41523ft 397kts
01-Nov-19 14:44 42.914463 -112.124097 352 41523ft 396kts
01-Nov-19 14:45 43.024725 -112.131960 352 41529ft 396kts
01-Nov-19 14:46 43.134802 -112.139836 352 41529ft 395kts
01-Nov-19 14:47 43.241026 -112.147465 352 41529ft 394kts
01-Nov-19 14:48 43.350830 -112.155377 352 41529ft 394kts
01-Nov-19 14:49 43.459894 -112.163265 352 41529ft 393kts
01-Nov-19 14:50 43.569327 -112.171209 352 41529ft 392kts
01-Nov-19 14:51 43.678003 -112.179128 352 41529ft 392kts
01-Nov-19 14:52 43.787407 -112.187109 352 40458ft 386kts
01-Nov-19 14:53 43.890577 -112.194641 351 38752ft 361kts
01-Nov-19 14:54 43.990715 -112.202068 351 37104ft 363kts
01-Nov-19 14:55 44.093547 -112.202847 4 35405ft 384kts
01-Nov-19 14:56 44.195725 -112.143865 14 33575ft 403kts
01-Nov-19 14:57 44.299513 -112.080749 15 31699ft 410kts
01-Nov-19 14:58 44.405390 -112.015855 15 29791ft 417kts
01-Nov-19 14:59 44.512093 -111.950165 16 27862ft 423kts
01-Nov-19 15:00 44.620636 -111.883041 17 25902ft 429kts
01-Nov-19 15:01 44.730167 -111.814976 17 23920ft 422kts
01-Nov-19 15:02 44.833755 -111.750346 17 22047ft 399kts
01-Nov-19 15:03 44.934982 -111.687059 17 20206ft 396kts
01-Nov-19 15:04 45.035526 -111.623907 18 18397ft 389kts
01-Nov-19 15:05 45.132274 -111.562791 18 17084ft 369kts
01-Nov-19 15:07 45.225213 -111.504160 18 17030ft 369kts
01-Nov-19 15:08 45.322956 -111.472341 356 17029ft 362kts
01-Nov-19 15:09 45.412711 -111.473377 357 16197ft 284kts
01-Nov-19 15:10 45.490114 -111.471778 357 15216ft 275kts
01-Nov-19 15:11 45.566043 -111.469784 358 14208ft 269kts
01-Nov-19 15:12 45.638093 -111.467884 358 13275ft 270kts
01-Nov-19 15:13 45.708447 -111.495969 341 12501ft 259kts
01-Nov-19 15:14 45.778507 -111.512452 356 11163ft 255kts
01-Nov-19 15:15 45.849805 -111.500099 13 9785ft 255kts
01-Nov-19 15:16 45.913441 -111.461133 30 8452ft 238kts
01-Nov-19 15:17 45.947540 -111.397864 96 7313ft 187kts
01-Nov-19 15:18 45.918141 -111.347710 137 6909ft 162kts
01-Nov-19 15:19 45.884640 -111.300351 136 6819ft 161kts
01-Nov-19 15:20 45.851345 -111.254078 136 6401ft 163kts
01-Nov-19 15:21 45.822183 -111.213639 139 5418ft 133kts
01-Nov-19 15:22 45.795244 -111.176471 137 4697ft 137kts
01-Nov-19 15:22 45.780394 -111.155689 130 4474ft 28kts
01-Nov-19 15:24 45.774660 -111.152785 166 4474ft 21kts
01-Nov-19 15:25 45.773274 -111.152493 132 4474ft 0kts

Navigation Log

Ident Type
Flight plan parsing failed, navigation log unavailable